Ridgeway, Ohio
Current Conditions -  °F | °C
As of 11:30 AM on Sunday 21 Dec 2014 (Local Time) from KEDJ Reporting Station
Clear Clear  
Wind Chill: 26°   Ceiling: Unl
Heat Index: 32°   Visibility: 9mi
Dew Point: 23°   Wind: 7mph
Humidity: 69%   Direction: 140°SE
Pressure: 30.29"   Gusts: NA
Location:  40.51°N, 83.57°W
Report Text: KEDJ 211630Z AUTO 14006KT 9SM CLR 00/M05 A3029 RMK AO1
Loading
Personal Weather Stations






























Interactive Weather Map New forecast layout! Learn more

10-Day Weather Forecast

Advertisements
Track Severe Weather on mobile